createdAt,value
2022-09-23T00:00:07.033Z,90.87001
2022-09-23T00:05:14.745Z,91.04
2022-09-23T00:10:22.666Z,91.07
2022-09-23T00:15:28.949Z,91.04
2022-09-23T00:20:36.101Z,91.02
2022-09-23T00:25:45.116Z,91.4
2022-09-23T00:30:52.605Z,92.08
2022-09-23T00:35:59.998Z,91.82
2022-09-23T00:41:07.748Z,91.77
2022-09-23T00:46:15.282Z,91.33
2022-09-23T00:51:21.865Z,91.16
2022-09-23T00:56:29.619Z,90.88
2022-09-23T01:01:37.817Z,90.98001
2022-09-23T01:06:44.732Z,91.29001
2022-09-23T01:11:53.562Z,91.51
2022-09-23T01:17:01.667Z,91.54
2022-09-23T01:22:08.658Z,91.45
2022-09-23T01:27:15.503Z,91.54
2022-09-23T01:32:23.331Z,91.25
2022-09-23T01:37:40.326Z,91.31
2022-09-23T01:42:47.773Z,91.58999
2022-09-23T01:47:56.263Z,91.38
2022-09-23T01:53:04.781Z,91.38
2022-09-23T01:58:12.121Z,91.56
2022-09-23T02:03:20.092Z,91.50001
2022-09-23T02:08:28.470Z,91.25
2022-09-23T02:13:35.669Z,91.50001
2022-09-23T02:18:44.042Z,91.67
2022-09-23T02:23:51.321Z,91.64001
2022-09-23T02:28:59.073Z,91.67
2022-09-23T02:34:08.051Z,91.90001
2022-09-23T02:39:17.017Z,91.74
2022-09-23T02:44:24.747Z,91.91001
2022-09-23T02:49:40.741Z,91.76001
2022-09-23T02:54:47.940Z,91.62001
2022-09-23T02:59:55.767Z,91.82
2022-09-23T03:05:03.666Z,91.79
2022-09-23T03:10:11.451Z,91.76001
2022-09-23T03:15:19.288Z,91.65
2022-09-23T03:20:27.445Z,91.66
2022-09-23T03:25:37.360Z,91.85
2022-09-23T03:30:45.324Z,91.86
2022-09-23T03:35:52.128Z,91.94
2022-09-23T03:41:00.405Z,91.99
2022-09-23T03:46:09.145Z,91.98001
2022-09-23T03:51:17.368Z,91.99
2022-09-23T03:56:24.587Z,91.88
2022-09-23T04:01:32.536Z,92.05001
2022-09-23T04:06:39.669Z,91.96
2022-09-23T04:11:46.867Z,92.08
2022-09-23T04:17:03.333Z,91.90001
2022-09-23T04:22:10.808Z,91.98001
2022-09-23T04:27:18.260Z,92.0
2022-09-23T04:32:25.215Z,92.15
2022-09-23T04:37:33.012Z,92.17
2022-09-23T04:42:41.495Z,92.1
2022-09-23T04:47:48.945Z,92.05001
2022-09-23T04:52:56.576Z,92.02
2022-09-23T04:58:03.127Z,91.98001
2022-09-23T05:03:11.362Z,92.62
2022-09-23T05:08:20.068Z,92.34
2022-09-23T05:13:28.455Z,92.45
2022-09-23T05:18:35.817Z,92.62
2022-09-23T05:23:44.193Z,92.57
2022-09-23T05:28:52.599Z,92.42
2022-09-23T05:34:00.573Z,92.67
2022-09-23T05:39:08.356Z,92.67
2022-09-23T05:44:15.788Z,92.7
2022-09-23T05:49:25.047Z,92.75001
2022-09-23T05:54:33.371Z,92.89001
2022-09-23T05:59:40.766Z,92.80001
2022-09-23T06:04:48.370Z,92.86
2022-09-23T06:09:57.775Z,94.31
2022-09-23T06:15:06.359Z,93.08001
2022-09-23T06:20:14.334Z,90.82
2022-09-23T06:25:22.537Z,90.67
2022-09-23T06:30:32.257Z,89.04
2022-09-23T06:35:39.192Z,84.97001
2022-09-23T06:40:47.023Z,86.66
2022-09-23T06:45:54.817Z,84.3
2022-09-23T06:51:02.862Z,84.00001
2022-09-23T06:56:11.883Z,83.92
2022-09-23T07:01:18.988Z,84.84
2022-09-23T07:06:26.335Z,83.76
2022-09-23T07:11:34.241Z,83.30001
2022-09-23T07:16:41.211Z,83.0
2022-09-23T07:21:48.938Z,81.46
2022-09-23T07:26:56.869Z,81.92
2022-09-23T07:32:04.308Z,81.01001
2022-09-23T07:37:11.965Z,79.05
2022-09-23T07:42:19.766Z,79.3
2022-09-23T07:47:26.314Z,77.49
2022-09-23T07:52:34.242Z,78.01
2022-09-23T07:57:42.508Z,78.49
2022-09-23T08:02:50.635Z,76.06
2022-09-23T08:07:57.973Z,75.42
2022-09-23T08:13:06.067Z,74.75
2022-09-23T08:18:14.424Z,74.74
2022-09-23T08:23:22.375Z,74.62
2022-09-23T08:28:30.585Z,74.87
2022-09-23T08:33:38.826Z,72.88
2022-09-23T08:38:46.668Z,73.32
2022-09-23T08:43:54.339Z,71.62
2022-09-23T08:49:01.749Z,70.8
2022-09-23T08:54:09.383Z,70.84
2022-09-23T08:59:16.783Z,68.12
2022-09-23T09:04:24.062Z,68.3
2022-09-23T09:09:31.240Z,65.47
2022-09-23T09:14:38.976Z,67.86
2022-09-23T09:19:46.827Z,63.98
2022-09-23T09:24:56.332Z,63.72
2022-09-23T09:30:04.179Z,63.0
2022-09-23T09:35:12.188Z,62.44
2022-09-23T09:40:19.528Z,63.62
2022-09-23T09:45:27.656Z,66.41
2022-09-23T09:50:36.046Z,64.26
2022-09-23T09:55:43.705Z,61.91
2022-09-23T10:00:52.341Z,62.51
2022-09-23T10:06:00.116Z,62.97
2022-09-23T10:11:07.833Z,61.36
2022-09-23T10:16:16.121Z,61.25
2022-09-23T10:21:25.017Z,60.76
2022-09-23T10:26:32.519Z,60.88
2022-09-23T10:31:40.081Z,61.79
2022-09-23T10:36:48.083Z,60.28
2022-09-23T10:41:54.754Z,59.73
2022-09-23T10:47:01.322Z,61.3
2022-09-23T10:52:09.278Z,58.94
2022-09-23T10:57:16.479Z,59.37
2022-09-23T11:02:25.234Z,58.75
2022-09-23T11:07:33.328Z,59.22
2022-09-23T11:12:39.901Z,55.68
2022-09-23T11:17:47.738Z,55.33
2022-09-23T11:22:55.511Z,55.31
2022-09-23T11:28:03.371Z,54.79
2022-09-23T11:33:11.258Z,55.67
2022-09-23T11:38:19.710Z,54.67
2022-09-23T11:43:27.767Z,52.37
2022-09-23T11:48:34.834Z,54.52
2022-09-23T11:53:42.832Z,53.91
2022-09-23T11:58:50.471Z,51.82
2022-09-23T12:03:59.706Z,52.07
2022-09-23T12:09:07.488Z,50.27
2022-09-23T12:14:13.993Z,52.62
2022-09-23T12:19:22.527Z,50.8
2022-09-23T12:24:31.541Z,49.22
2022-09-23T12:29:42.270Z,49.76
2022-09-23T12:34:49.875Z,50.64
2022-09-23T12:39:56.383Z,49.06
2022-09-23T12:45:05.180Z,48.38
2022-09-23T12:50:12.723Z,48.06
2022-09-23T12:55:21.700Z,49.02
2022-09-23T13:00:29.397Z,49.18
2022-09-23T13:05:37.559Z,49.02
2022-09-23T13:10:44.760Z,47.99
2022-09-23T13:15:52.242Z,47.32
2022-09-23T13:20:59.173Z,49.88
2022-09-23T13:26:07.170Z,47.19
2022-09-23T13:31:15.436Z,48.44
2022-09-23T13:36:23.778Z,47.6
2022-09-23T13:41:31.629Z,47.8
2022-09-23T13:46:39.024Z,47.41
2022-09-23T13:51:47.183Z,47.25
2022-09-23T13:56:54.682Z,47.73
2022-09-23T14:02:02.615Z,48.54
2022-09-23T14:07:09.739Z,47.3
2022-09-23T14:12:18.027Z,46.94
2022-09-23T14:17:25.975Z,46.32
2022-09-23T14:22:32.519Z,46.66
2022-09-23T14:27:40.898Z,44.84
2022-09-23T14:32:47.896Z,45.72
2022-09-23T14:37:56.203Z,46.29
2022-09-23T14:43:04.605Z,46.18
2022-09-23T14:48:12.141Z,46.84
2022-09-23T14:53:19.020Z,45.78
2022-09-23T14:58:26.647Z,45.94
2022-09-23T15:03:33.414Z,47.16
2022-09-23T15:08:41.835Z,47.45
2022-09-23T15:13:50.722Z,47.25
2022-09-23T15:18:59.583Z,48.12
2022-09-23T15:24:06.653Z,49.48
2022-09-23T15:29:13.854Z,49.94
2022-09-23T15:34:21.047Z,51.08
2022-09-23T15:39:28.479Z,53.12
2022-09-23T15:44:36.777Z,54.02
2022-09-23T15:49:44.934Z,55.8
2022-09-23T15:54:52.828Z,55.6
2022-09-23T15:59:59.613Z,57.23
2022-09-23T16:05:07.066Z,58.31
2022-09-23T16:10:14.596Z,59.94
2022-09-23T16:15:21.675Z,61.09
2022-09-23T16:20:27.807Z,62.14
2022-09-23T16:25:35.620Z,62.67
2022-09-23T16:30:43.095Z,64.03
2022-09-23T16:35:50.654Z,65.92
2022-09-23T16:40:58.496Z,66.64
2022-09-23T16:46:06.338Z,67.97
2022-09-23T16:51:14.552Z,69.39
2022-09-23T16:56:22.073Z,70.8
2022-09-23T17:01:30.579Z,72.31
2022-09-23T17:06:37.700Z,74.15
2022-09-23T17:11:50.027Z,74.79
2022-09-23T17:16:57.219Z,76.5
2022-09-23T17:22:05.217Z,76.88
2022-09-23T17:27:12.270Z,76.91
2022-09-23T17:32:19.466Z,78.07
2022-09-23T17:37:27.317Z,78.51
2022-09-23T17:42:35.137Z,78.84
2022-09-23T17:47:42.337Z,79.43
2022-09-23T17:52:49.745Z,79.39
2022-09-23T17:57:56.753Z,79.91001
2022-09-23T18:03:04.769Z,80.18001
2022-09-23T18:08:12.539Z,80.09
2022-09-23T18:13:19.625Z,80.05
2022-09-23T18:18:28.007Z,80.73001
2022-09-23T18:23:35.991Z,81.51999
2022-09-23T18:28:44.179Z,81.50001
2022-09-23T18:33:50.984Z,81.28
2022-09-23T18:38:58.921Z,82.33001
2022-09-23T18:44:06.614Z,82.41
2022-09-23T18:49:13.941Z,83.26
2022-09-23T18:54:22.886Z,83.39
2022-09-23T18:59:30.193Z,82.91
2022-09-23T19:04:37.430Z,83.37001
2022-09-23T19:09:45.135Z,84.17
2022-09-23T19:14:53.116Z,83.93001
2022-09-23T19:20:00.911Z,83.92
2022-09-23T19:25:09.323Z,84.76001
2022-09-23T19:30:17.282Z,84.18
2022-09-23T19:35:25.437Z,84.52
2022-09-23T19:40:39.310Z,84.99
2022-09-23T19:45:48.466Z,85.55
2022-09-23T19:51:17.756Z,85.52
2022-09-23T19:56:25.919Z,85.46
2022-09-23T20:01:32.478Z,85.17
2022-09-23T20:06:39.678Z,85.68
2022-09-23T20:11:48.392Z,85.82
2022-09-23T20:16:56.721Z,86.53
2022-09-23T20:22:04.438Z,86.50001
2022-09-23T20:27:11.634Z,86.3
2022-09-23T20:32:18.907Z,86.56
2022-09-23T20:37:27.849Z,86.86
2022-09-23T20:42:36.346Z,86.88
2022-09-23T20:47:43.663Z,86.64001
2022-09-23T20:53:06.132Z,86.84
2022-09-23T20:58:13.628Z,87.31
2022-09-23T21:03:20.756Z,87.34
2022-09-23T21:08:29.427Z,87.32
2022-09-23T21:13:36.915Z,87.48
2022-09-23T21:18:45.149Z,87.18
2022-09-23T21:23:52.610Z,87.1
2022-09-23T21:29:00.966Z,86.94
2022-09-23T21:34:09.772Z,87.26001
2022-09-23T21:39:17.375Z,87.40001
2022-09-23T21:44:24.593Z,87.79
2022-09-23T21:49:33.086Z,87.83
2022-09-23T21:54:41.437Z,88.09
2022-09-23T21:59:49.069Z,87.82001
2022-09-23T22:05:03.368Z,88.01001
2022-09-23T22:10:11.395Z,87.96
2022-09-23T22:15:17.381Z,88.19
2022-09-23T22:20:25.697Z,88.21
2022-09-23T22:25:33.677Z,88.09
2022-09-23T22:30:41.948Z,88.2
2022-09-23T22:35:49.438Z,88.38
2022-09-23T22:40:56.313Z,88.41001
2022-09-23T22:46:06.866Z,88.49
2022-09-23T22:51:15.464Z,88.46
2022-09-23T22:56:22.669Z,88.79001
2022-09-23T23:01:31.219Z,88.86001
2022-09-23T23:06:40.076Z,88.96
2022-09-23T23:11:46.829Z,88.45
2022-09-23T23:16:54.193Z,88.41001
2022-09-23T23:22:01.967Z,88.48001
2022-09-23T23:27:10.205Z,88.61
2022-09-23T23:32:18.715Z,88.68
2022-09-23T23:37:26.634Z,88.76
2022-09-23T23:42:34.513Z,88.91001
2022-09-23T23:47:42.301Z,89.16
2022-09-23T23:52:50.548Z,89.00001
2022-09-23T23:57:57.406Z,89.1
